Time;durP1;ratioP1;P1;durP2;ratioP2;P2;SDS_P1;SDS_P2;PMS_P1;PMS_P2;Temp;Humidity;BMP_temperature;BMP_pressure;BME280_temperature;BME280_humidity;BME280_pressure;Samples;Min_cycle;Max_cycle;Signal;HPM_P1;HPM_P2
2022/03/11 00:00:43;;;;;;;5.22;2.05;;;2.60;46.70;;;;;;4808778;29;20095;-76
2022/03/11 00:03:11;;;;;;;7.97;2.00;;;2.90;45.90;;;;;;4812056;29;20053;-76
2022/03/11 00:05:40;;;;;;;4.82;2.05;;;3.10;45.20;;;;;;4811455;29;20050;-76
2022/03/11 00:08:07;;;;;;;4.93;1.45;;;3.00;45.00;;;;;;4811752;29;20055;-76
2022/03/11 00:10:34;;;;;;;4.72;1.60;;;3.00;45.30;;;;;;4794446;29;20507;-76
2022/03/11 00:13:02;;;;;;;6.35;2.20;;;3.00;45.50;;;;;;4792642;29;20061;-76
2022/03/11 00:15:29;;;;;;;4.97;1.73;;;2.90;45.50;;;;;;4813537;29;20064;-76
2022/03/11 00:17:57;;;;;;;4.88;1.50;;;2.90;45.60;;;;;;4810987;29;20058;-76
2022/03/11 00:20:24;;;;;;;6.03;1.98;;;2.90;45.40;;;;;;4809516;29;20082;-76
2022/03/11 00:22:53;;;;;;;4.10;1.52;;;3.00;45.70;;;;;;4810588;29;20046;-76
2022/03/11 00:25:21;;;;;;;8.60;2.30;;;2.90;45.50;;;;;;4813438;29;20046;-76
2022/03/11 00:27:49;;;;;;;4.82;1.30;;;2.90;45.30;;;;;;4808865;29;20081;-76
2022/03/11 00:30:16;;;;;;;5.55;1.52;;;2.90;45.00;;;;;;4811071;29;20050;-76
2022/03/11 00:32:45;;;;;;;6.68;1.75;;;2.80;45.20;;;;;;4810422;29;20042;-76
2022/03/11 00:35:13;;;;;;;4.72;1.23;;;2.70;45.20;;;;;;4813306;29;20047;-76
2022/03/11 00:37:41;;;;;;;4.45;1.60;;;2.90;45.40;;;;;;4810111;29;20054;-76
2022/03/11 00:40:08;;;;;;;4.47;1.80;;;2.70;45.20;;;;;;4794681;29;20598;-76
2022/03/11 00:42:36;;;;;;;4.53;1.45;;;2.80;45.10;;;;;;4778509;29;20074;-76
2022/03/11 00:45:04;;;;;;;6.90;2.13;;;2.30;45.10;;;;;;4815790;29;20471;-76
2022/03/11 00:47:31;;;;;;;5.50;1.50;;;2.80;45.00;;;;;;4813089;29;20050;-76
2022/03/11 00:49:58;;;;;;;6.93;2.13;;;2.50;44.90;;;;;;4796288;29;20133;-76
2022/03/11 00:52:26;;;;;;;6.80;1.48;;;2.80;44.90;;;;;;4812056;29;20134;-76
2022/03/11 00:54:53;;;;;;;7.65;2.83;;;2.60;45.20;;;;;;4793067;29;20157;-76
2022/03/11 00:57:20;;;;;;;7.20;2.47;;;2.70;45.20;;;;;;4793455;29;20050;-76
2022/03/11 00:59:47;;;;;;;6.10;2.45;;;2.40;45.00;;;;;;4811610;29;20058;-76
2022/03/11 01:02:16;;;;;;;4.53;1.70;;;2.50;45.10;;;;;;4812180;29;20148;-76
2022/03/11 01:04:43;;;;;;;4.80;1.90;;;2.60;45.20;;;;;;4810186;29;20074;-76
2022/03/11 01:07:11;;;;;;;7.68;2.17;;;2.60;45.00;;;;;;4796125;29;20885;-76
2022/03/11 01:09:38;;;;;;;5.13;1.40;;;2.60;45.00;;;;;;4811582;29;20049;-76
2022/03/11 01:12:05;;;;;;;5.45;1.48;;;2.60;45.10;;;;;;4810958;29;20110;-76
2022/03/11 01:14:33;;;;;;;5.28;1.80;;;2.60;45.00;;;;;;4795847;29;20050;-76
2022/03/11 01:17:00;;;;;;;6.75;2.55;;;2.50;45.00;;;;;;4810471;29;20050;-76
2022/03/11 01:19:27;;;;;;;5.63;1.70;;;2.40;45.30;;;;;;4810315;29;20058;-76
2022/03/11 01:21:55;;;;;;;5.35;1.92;;;2.40;45.50;;;;;;4823559;29;20043;-76
2022/03/11 01:24:22;;;;;;;6.43;1.60;;;2.50;45.30;;;;;;4811915;29;20087;-76
2022/03/11 01:26:49;;;;;;;5.10;1.48;;;2.50;45.30;;;;;;4795024;29;20054;-76
2022/03/11 01:29:16;;;;;;;4.20;1.75;;;2.30;45.60;;;;;;4810661;29;20054;-76
2022/03/11 01:31:49;;;;;;;9.70;2.40;;;2.40;45.30;;;;;;4812367;29;20051;-76
2022/03/11 01:34:17;;;;;;;6.38;1.48;;;2.40;44.80;;;;;;4811255;29;20302;-75
2022/03/11 01:36:44;;;;;;;5.57;1.30;;;2.50;45.90;;;;;;4793716;29;20188;-75
2022/03/11 01:39:12;;;;;;;5.95;1.90;;;2.50;45.00;;;;;;4808648;29;20141;-76
2022/03/11 01:41:39;;;;;;;3.75;1.60;;;2.50;45.20;;;;;;4812092;29;20053;-76
2022/03/11 01:44:08;;;;;;;4.10;1.55;;;2.10;45.60;;;;;;4823019;29;20144;-76
2022/03/11 01:46:36;;;;;;;7.15;1.33;;;2.50;45.20;;;;;;4812021;29;20125;-76
2022/03/11 01:49:07;;;;;;;6.90;1.58;;;2.40;44.70;;;;;;4813110;29;20057;-76
2022/03/11 01:51:42;;;;;;;3.25;1.55;;;2.50;45.30;;;;;;4825684;29;20042;-76
2022/03/11 01:54:10;;;;;;;4.03;1.65;;;2.40;44.90;;;;;;4813572;29;20054;-76
2022/03/11 01:56:38;;;;;;;6.63;1.75;;;2.40;44.90;;;;;;4811126;29;20073;-76
2022/03/11 01:59:07;;;;;;;5.78;1.80;;;2.40;45.10;;;;;;4796401;29;20133;-76
2022/03/11 02:01:34;;;;;;;5.20;1.67;;;2.30;45.10;;;;;;4780686;29;20047;-76
2022/03/11 02:04:01;;;;;;;6.65;1.70;;;2.30;45.70;;;;;;4807375;29;20050;-76
2022/03/11 02:06:29;;;;;;;6.18;1.95;;;2.30;45.20;;;;;;4811182;29;20038;-76
2022/03/11 02:08:58;;;;;;;6.15;1.95;;;2.10;45.20;;;;;;4809714;29;20050;-76
2022/03/11 02:11:25;;;;;;;7.22;1.55;;;2.10;45.70;;;;;;4809213;29;20054;-76
2022/03/11 02:13:56;;;;;;;5.50;1.85;;;2.00;45.60;;;;;;4808506;29;20117;-76
2022/03/11 02:16:32;;;;;;;4.93;1.33;;;1.70;46.00;;;;;;4794656;29;20852;-76
2022/03/11 02:19:00;;;;;;;7.78;2.03;;;1.80;46.30;;;;;;4810093;29;20061;-76
2022/03/11 02:21:28;;;;;;;7.57;2.15;;;1.90;46.50;;;;;;4794258;29;20038;-76
2022/03/11 02:23:57;;;;;;;5.40;1.35;;;2.00;46.30;;;;;;4794673;29;20181;-76
2022/03/11 02:26:26;;;;;;;4.07;1.52;;;1.90;46.00;;;;;;4794942;29;20050;-76
2022/03/11 02:28:55;;;;;;;6.20;1.00;;;1.90;45.70;;;;;;4793931;29;20053;-76
2022/03/11 02:31:25;;;;;;;5.00;1.60;;;2.10;45.40;;;;;;4794951;29;20049;-76
2022/03/11 02:33:52;;;;;;;6.10;1.58;;;2.30;45.50;;;;;;4810100;29;20054;-76
2022/03/11 02:36:20;;;;;;;5.40;1.33;;;2.10;45.60;;;;;;4790198;29;20422;-76
2022/03/11 02:38:48;;;;;;;4.32;1.45;;;2.40;45.50;;;;;;4810252;29;20726;-76
2022/03/11 02:41:15;;;;;;;8.20;1.58;;;2.20;44.80;;;;;;4811470;29;20049;-76
2022/03/11 02:43:43;;;;;;;4.20;1.65;;;1.40;44.80;;;;;;4809070;29;20042;-76
2022/03/11 02:46:12;;;;;;;5.13;1.83;;;2.40;45.50;;;;;;4792568;29;20054;-76
2022/03/11 02:48:40;;;;;;;3.85;1.00;;;2.40;45.00;;;;;;4808769;29;20570;-76
2022/03/11 02:51:07;;;;;;;3.30;1.23;;;2.30;45.00;;;;;;4811060;29;20074;-76
2022/03/11 02:53:40;;;;;;;7.07;1.40;;;2.20;44.90;;;;;;4791652;29;20052;-75
2022/03/11 02:56:09;;;;;;;5.55;1.60;;;2.10;45.10;;;;;;4795430;29;20062;-76
2022/03/11 02:58:37;;;;;;;8.05;1.50;;;2.10;45.30;;;;;;4824651;29;20163;-76
2022/03/11 03:01:06;;;;;;;7.30;2.03;;;1.70;45.80;;;;;;4808271;29;20042;-76
2022/03/11 03:03:39;;;;;;;6.28;1.35;;;1.80;46.00;;;;;;4808202;29;20051;-76
2022/03/11 03:06:07;;;;;;;9.73;2.20;;;1.80;46.20;;;;;;4794940;29;20042;-76
2022/03/11 03:08:34;;;;;;;7.18;1.70;;;1.80;46.30;;;;;;4809158;29;20038;-76
2022/03/11 03:11:01;;;;;;;6.10;1.88;;;1.90;46.30;;;;;;4821576;29;20495;-77
2022/03/11 03:13:29;;;;;;;6.60;1.80;;;1.80;46.90;;;;;;4792002;29;20072;-76
2022/03/11 03:15:56;;;;;;;5.20;1.95;;;1.70;46.60;;;;;;4778188;29;20046;-76
2022/03/11 03:18:24;;;;;;;9.32;2.50;;;1.80;46.50;;;;;;4776897;29;20054;-76
2022/03/11 03:20:51;;;;;;;9.40;2.00;;;1.50;46.70;;;;;;4808643;29;20119;-76
2022/03/11 03:23:18;;;;;;;6.43;1.77;;;1.60;47.00;;;;;;4824275;29;20055;-76
2022/03/11 03:25:45;;;;;;;7.07;1.90;;;1.80;46.80;;;;;;4794841;29;20063;-76
2022/03/11 03:28:12;;;;;;;9.40;1.90;;;1.70;46.30;;;;;;4807358;29;20049;-76
2022/03/11 03:30:39;;;;;;;7.47;1.90;;;1.70;46.60;;;;;;4809090;29;20047;-76
2022/03/11 03:33:08;;;;;;;4.78;1.60;;;1.20;46.50;;;;;;4811409;29;20054;-76
2022/03/11 03:35:35;;;;;;;7.95;1.98;;;1.40;47.30;;;;;;4792577;29;20054;-76
2022/03/11 03:38:06;;;;;;;7.50;1.92;;;1.30;47.80;;;;;;4825699;29;20053;-76
2022/03/11 03:40:33;;;;;;;8.18;1.83;;;0.70;47.00;;;;;;4809764;29;20077;-76
2022/03/11 03:43:00;;;;;;;8.63;2.70;;;1.30;47.40;;;;;;4790623;29;20417;-76
2022/03/11 03:45:28;;;;;;;5.00;1.35;;;1.10;48.10;;;;;;4808575;29;20050;-75
2022/03/11 03:47:55;;;;;;;6.53;1.70;;;2.10;49.20;;;;;;4807023;29;20055;-76
2022/03/11 03:50:23;;;;;;;9.25;2.33;;;1.20;48.10;;;;;;4810300;29;20117;-76
2022/03/11 03:52:50;;;;;;;4.38;1.30;;;1.10;47.80;;;;;;4807457;29;20058;-76
2022/03/11 03:55:17;;;;;;;5.53;1.73;;;1.10;48.60;;;;;;4811531;29;20057;-76
2022/03/11 03:57:44;;;;;;;7.95;2.10;;;1.10;48.20;;;;;;4810207;29;20053;-76
2022/03/11 04:00:13;;;;;;;7.13;1.92;;;0.90;48.30;;;;;;4792983;29;20065;-76
2022/03/11 04:02:48;;;;;;;6.72;2.47;;;1.10;48.30;;;;;;4809376;29;20498;-76
2022/03/11 04:05:17;;;;;;;7.80;2.17;;;1.20;47.80;;;;;;4807972;29;20750;-76
2022/03/11 04:07:47;;;;;;;7.82;2.58;;;1.10;48.10;;;;;;4806369;29;20046;-75
2022/03/11 04:10:15;;;;;;;6.78;2.80;;;1.10;48.10;;;;;;4808072;29;20133;-76
2022/03/11 04:12:42;;;;;;;8.55;3.25;;;1.00;48.10;;;;;;4791879;29;20054;-76
2022/03/11 04:15:10;;;;;;;11.95;3.35;;;0.80;48.80;;;;;;4807800;29;20525;-76
2022/03/11 04:17:37;;;;;;;8.90;3.05;;;0.20;48.30;;;;;;4789894;29;20068;-76
2022/03/11 04:20:06;;;;;;;8.85;2.58;;;0.80;48.90;;;;;;4793332;29;22202;-76
2022/03/11 04:22:39;;;;;;;7.32;2.40;;;0.70;48.80;;;;;;4808437;29;20046;-76
2022/03/11 04:25:07;;;;;;;7.20;2.92;;;0.70;48.60;;;;;;4794134;29;20059;-76
2022/03/11 04:27:34;;;;;;;8.73;2.47;;;0.80;48.70;;;;;;4810692;29;20042;-76
2022/03/11 04:30:02;;;;;;;12.13;2.55;;;0.90;49.10;;;;;;4777656;29;20059;-76
2022/03/11 04:32:32;;;;;;;13.23;2.95;;;0.90;48.70;;;;;;4807246;29;20047;-76
2022/03/11 04:34:59;;;;;;;20.25;4.75;;;0.70;49.60;;;;;;4791384;29;20054;-76
2022/03/11 04:37:26;;;;;;;17.77;4.80;;;0.70;49.90;;;;;;4809212;29;20046;-76
2022/03/11 04:39:53;;;;;;;23.70;5.75;;;0.90;49.30;;;;;;4805848;29;20059;-76
2022/03/11 04:42:21;;;;;;;12.43;3.67;;;0.80;48.70;;;;;;4820637;29;20081;-76
2022/03/11 04:44:48;;;;;;;18.70;4.88;;;0.60;48.80;;;;;;4791859;29;20078;-76
2022/03/11 04:47:18;;;;;;;13.95;4.45;;;0.60;48.80;;;;;;4810046;29;20059;-76
2022/03/11 04:49:45;;;;;;;17.05;5.18;;;0.60;49.40;;;;;;4794511;29;20117;-76
2022/03/11 04:52:13;;;;;;;11.68;3.95;;;0.80;49.00;;;;;;4798137;29;20050;-76
2022/03/11 04:54:40;;;;;;;16.77;5.05;;;0.70;49.50;;;;;;4797389;29;20144;-75
2022/03/11 04:57:07;;;;;;;15.15;4.88;;;0.60;49.90;;;;;;4794362;29;20046;-76
2022/03/11 04:59:34;;;;;;;18.55;4.18;;;0.60;49.50;;;;;;4812769;29;20066;-76
2022/03/11 05:02:01;;;;;;;17.70;4.05;;;1.40;50.40;;;;;;4793656;29;20050;-76
2022/03/11 05:04:28;;;;;;;16.73;4.68;;;0.60;50.00;;;;;;4794423;29;20167;-76
2022/03/11 05:06:55;;;;;;;26.40;5.65;;;0.60;49.80;;;;;;4825579;29;20057;-76
2022/03/11 05:09:23;;;;;;;17.15;6.45;;;0.70;49.30;;;;;;4780138;29;20825;-76
2022/03/11 05:11:50;;;;;;;16.48;6.22;;;0.70;49.30;;;;;;4794347;29;20513;-76
2022/03/11 05:14:17;;;;;;;20.50;5.90;;;0.80;49.30;;;;;;4792298;29;20050;-76
2022/03/11 05:16:44;;;;;;;19.95;6.30;;;0.70;49.00;;;;;;4811098;29;20975;-76
2022/03/11 05:19:11;;;;;;;21.85;5.32;;;0.70;49.80;;;;;;4812762;29;20050;-76
2022/03/11 05:21:39;;;;;;;15.20;4.93;;;0.60;50.10;;;;;;4826235;29;20034;-76
2022/03/11 05:24:06;;;;;;;15.32;4.30;;;0.60;50.10;;;;;;4792194;29;20139;-76
2022/03/11 05:26:33;;;;;;;15.20;5.30;;;0.50;50.10;;;;;;4812780;29;20038;-75
2022/03/11 05:29:00;;;;;;;16.38;4.70;;;0.60;50.00;;;;;;4809916;29;20046;-76
2022/03/11 05:31:28;;;;;;;16.70;5.75;;;0.60;50.10;;;;;;4793830;29;20244;-76
2022/03/11 05:33:56;;;;;;;15.88;4.53;;;0.70;50.30;;;;;;4811001;29;20054;-76
2022/03/11 05:36:23;;;;;;;12.82;5.10;;;0.70;50.20;;;;;;4795479;29;20058;-76
2022/03/11 05:38:51;;;;;;;25.48;6.47;;;0.70;50.40;;;;;;4810314;29;20078;-76
2022/03/11 05:41:18;;;;;;;37.15;9.43;;;0.60;49.80;;;;;;4810108;29;20705;-76
2022/03/11 05:43:45;;;;;;;39.70;11.38;;;0.70;50.10;;;;;;4793964;29;20046;-76
2022/03/11 05:46:13;;;;;;;29.48;9.43;;;0.70;50.40;;;;;;4808537;29;20062;-76
2022/03/11 05:48:41;;;;;;;27.20;8.52;;;0.80;50.10;;;;;;4808257;29;20409;-76
2022/03/11 05:51:09;;;;;;;22.58;7.15;;;-0.20;50.00;;;;;;4794947;29;20065;-76
2022/03/11 05:53:37;;;;;;;24.33;5.95;;;0.80;50.40;;;;;;4793918;29;21108;-76
2022/03/11 05:56:04;;;;;;;19.25;5.43;;;0.20;49.90;;;;;;4809421;29;20074;-77
2022/03/11 05:58:32;;;;;;;15.82;5.60;;;1.10;49.90;;;;;;4824376;29;20046;-77
2022/03/11 06:00:59;;;;;;;14.98;4.03;;;1.00;50.00;;;;;;4811186;29;20104;-77
2022/03/11 06:03:27;;;;;;;12.70;4.03;;;2.00;50.30;;;;;;4811028;29;20053;-77
2022/03/11 06:05:54;;;;;;;14.88;3.88;;;1.10;49.70;;;;;;4810318;29;20057;-77
2022/03/11 06:08:23;;;;;;;11.57;4.40;;;1.30;49.30;;;;;;4813336;29;20034;-77
2022/03/11 06:10:50;;;;;;;18.20;4.72;;;1.30;49.40;;;;;;4811408;29;20054;-77
2022/03/11 06:13:18;;;;;;;12.80;3.75;;;1.40;48.70;;;;;;4793969;29;20062;-75
2022/03/11 06:15:45;;;;;;;13.45;4.55;;;1.30;49.50;;;;;;4795831;29;20275;-77
2022/03/11 06:18:15;;;;;;;16.65;3.97;;;1.50;49.10;;;;;;4797646;29;20148;-76
2022/03/11 06:20:42;;;;;;;14.93;4.13;;;1.60;48.20;;;;;;4794156;29;20066;-76
2022/03/11 06:23:10;;;;;;;16.00;3.80;;;1.50;48.00;;;;;;4810458;29;20423;-75
2022/03/11 06:25:37;;;;;;;17.92;4.28;;;1.50;49.10;;;;;;4808840;29;20054;-77
2022/03/11 06:28:05;;;;;;;15.30;4.20;;;1.60;48.00;;;;;;4794888;29;20045;-77
2022/03/11 06:30:32;;;;;;;11.68;4.05;;;1.70;47.80;;;;;;4807750;29;20051;-77
2022/03/11 06:33:00;;;;;;;14.63;4.35;;;1.40;47.40;;;;;;4795000;29;20541;-77
2022/03/11 06:35:27;;;;;;;11.43;3.80;;;0.60;46.50;;;;;;4777798;29;20611;-78
2022/03/11 06:37:55;;;;;;;7.88;3.10;;;2.20;47.20;;;;;;4809869;29;20059;-75
2022/03/11 06:40:22;;;;;;;8.50;3.28;;;2.00;46.70;;;;;;4810859;29;20507;-77
2022/03/11 06:42:51;;;;;;;8.73;2.92;;;2.10;47.20;;;;;;4795159;29;20057;-75
2022/03/11 06:45:19;;;;;;;11.43;3.20;;;2.10;46.90;;;;;;4810156;29;20050;-75
2022/03/11 06:47:47;;;;;;;9.13;2.38;;;2.20;46.80;;;;;;4824862;29;20502;-77
2022/03/11 06:50:16;;;;;;;8.18;2.47;;;2.30;46.90;;;;;;4793774;29;20043;-77
2022/03/11 06:52:47;;;;;;;7.53;2.90;;;2.50;46.10;;;;;;4823596;29;20054;-77
2022/03/11 06:55:15;;;;;;;9.10;2.58;;;2.50;46.30;;;;;;4794287;29;20050;-78
2022/03/11 06:57:44;;;;;;;6.72;3.03;;;2.70;45.70;;;;;;4785280;29;22410;-75
2022/03/11 07:00:13;;;;;;;6.43;2.13;;;2.80;45.50;;;;;;4786077;29;20058;-75
2022/03/11 07:02:41;;;;;;;8.57;2.85;;;2.60;45.70;;;;;;4754336;29;22177;-76
2022/03/11 07:05:11;;;;;;;6.47;2.47;;;2.60;45.30;;;;;;4790052;29;20130;-76
2022/03/11 07:07:39;;;;;;;8.38;2.45;;;2.90;45.30;;;;;;4770709;29;20054;-76
2022/03/11 07:10:10;;;;;;;6.50;1.90;;;2.70;44.90;;;;;;4788320;29;20061;-76
2022/03/11 07:12:38;;;;;;;6.50;1.52;;;2.40;44.90;;;;;;4789790;29;20051;-76
2022/03/11 07:15:07;;;;;;;5.93;2.20;;;2.50;44.90;;;;;;4788410;29;20126;-76
2022/03/11 07:17:35;;;;;;;9.52;2.22;;;2.70;44.60;;;;;;4790416;29;20166;-76
2022/03/11 07:20:06;;;;;;;5.10;1.92;;;2.80;44.40;;;;;;4775448;29;20178;-76
2022/03/11 07:22:34;;;;;;;5.47;1.83;;;2.60;44.10;;;;;;4773653;29;20084;-75
2022/03/11 07:25:05;;;;;;;7.50;2.63;;;2.80;44.20;;;;;;4790591;29;20051;-76
2022/03/11 07:27:33;;;;;;;6.38;1.85;;;2.50;43.60;;;;;;4789598;29;20038;-76
2022/03/11 07:30:00;;;;;;;6.40;1.70;;;2.60;44.30;;;;;;4789454;29;20073;-75
2022/03/11 07:32:28;;;;;;;5.15;2.30;;;2.70;44.00;;;;;;4803686;29;22231;-76
2022/03/11 07:34:55;;;;;;;4.63;1.50;;;2.70;44.00;;;;;;4791583;29;20061;-75
2022/03/11 07:37:23;;;;;;;7.13;2.28;;;2.90;43.90;;;;;;4788943;29;20058;-77
2022/03/11 07:39:50;;;;;;;8.32;2.20;;;2.90;43.90;;;;;;4807775;29;20050;-76
2022/03/11 07:42:18;;;;;;;5.80;1.67;;;3.00;43.10;;;;;;4793120;29;20577;-76
2022/03/11 07:44:45;;;;;;;6.00;2.60;;;2.80;42.80;;;;;;4762134;29;20726;-77
2022/03/11 07:47:13;;;;;;;5.72;2.00;;;2.90;43.10;;;;;;4775870;29;20070;-76
2022/03/11 07:49:41;;;;;;;6.40;2.08;;;3.00;42.70;;;;;;4790309;29;20043;-76
2022/03/11 07:52:14;;;;;;;6.63;2.05;;;2.70;42.30;;;;;;4774484;29;22069;-76
2022/03/11 07:54:42;;;;;;;5.47;1.58;;;3.10;42.80;;;;;;4774658;29;20174;-76
2022/03/11 07:57:11;;;;;;;5.05;2.03;;;3.10;42.70;;;;;;4791961;29;20678;-77
2022/03/11 07:59:40;;;;;;;5.15;2.17;;;3.20;41.90;;;;;;4788709;29;20153;-76
2022/03/11 08:02:08;;;;;;;10.13;2.00;;;3.30;42.00;;;;;;4775688;29;20537;-76
2022/03/11 08:04:35;;;;;;;7.10;1.95;;;3.20;41.50;;;;;;4773262;29;20054;-76
2022/03/11 08:07:06;;;;;;;8.40;1.85;;;3.20;41.50;;;;;;4805179;29;20062;-76
2022/03/11 08:09:34;;;;;;;5.32;1.58;;;3.20;42.20;;;;;;4789231;29;20050;-76
2022/03/11 08:12:03;;;;;;;5.43;2.17;;;3.10;42.30;;;;;;4773174;29;20082;-76
2022/03/11 08:14:31;;;;;;;4.22;1.38;;;3.30;42.30;;;;;;4790547;29;20146;-77
2022/03/11 08:16:58;;;;;;;4.07;1.75;;;3.80;41.60;;;;;;4792550;29;20090;-76
2022/03/11 08:19:26;;;;;;;5.38;2.03;;;3.80;41.90;;;;;;4793051;29;20170;-76
2022/03/11 08:21:53;;;;;;;8.27;2.33;;;3.60;41.80;;;;;;4776502;29;20050;-76
2022/03/11 08:24:21;;;;;;;6.28;2.40;;;3.90;41.90;;;;;;4794527;29;20145;-77
2022/03/11 08:26:49;;;;;;;7.13;2.17;;;4.10;41.00;;;;;;4792239;29;20231;-77
2022/03/11 08:29:17;;;;;;;4.78;1.52;;;4.30;40.30;;;;;;4794392;29;20054;-76
2022/03/11 08:31:46;;;;;;;4.10;1.58;;;4.10;39.90;;;;;;4791179;29;20065;-77
2022/03/11 08:34:14;;;;;;;3.17;1.75;;;4.20;40.10;;;;;;4781244;29;20050;-76
2022/03/11 08:36:42;;;;;;;5.20;1.38;;;4.30;39.60;;;;;;4763763;29;20065;-77
2022/03/11 08:39:09;;;;;;;4.22;1.58;;;4.30;39.70;;;;;;4791336;29;20426;-77
2022/03/11 08:41:36;;;;;;;3.03;0.95;;;4.40;40.10;;;;;;4793387;29;20050;-76
2022/03/11 08:44:06;;;;;;;5.78;1.88;;;4.50;39.40;;;;;;4793158;29;20069;-77
2022/03/11 08:46:36;;;;;;;4.10;1.50;;;4.50;38.80;;;;;;4794328;29;20054;-77
2022/03/11 08:49:07;;;;;;;6.75;1.67;;;4.70;39.60;;;;;;4778823;29;20097;-76
2022/03/11 08:51:35;;;;;;;4.90;1.60;;;4.80;39.20;;;;;;4792306;29;20057;-77
2022/03/11 08:54:03;;;;;;;6.10;2.40;;;4.80;38.60;;;;;;4777557;29;20115;-76
2022/03/11 08:56:30;;;;;;;9.75;1.58;;;5.00;38.00;;;;;;4775787;29;20046;-76
2022/03/11 08:58:57;;;;;;;5.57;1.70;;;5.10;38.70;;;;;;4766279;29;20191;-76
2022/03/11 09:01:24;;;;;;;6.68;1.67;;;5.30;38.00;;;;;;4806677;29;20062;-76
2022/03/11 09:03:52;;;;;;;3.42;1.15;;;5.40;37.60;;;;;;4806883;29;22061;-77
2022/03/11 09:06:20;;;;;;;5.82;1.88;;;5.30;38.00;;;;;;4792391;29;20051;-77
2022/03/11 09:08:48;;;;;;;4.68;2.13;;;5.40;38.00;;;;;;4759676;29;20084;-76
2022/03/11 09:11:16;;;;;;;15.60;5.05;;;5.60;37.10;;;;;;4791366;29;20054;-77
2022/03/11 09:13:49;;;;;;;6.88;2.20;;;5.70;37.10;;;;;;4792667;29;20245;-76
2022/03/11 09:16:16;;;;;;;5.18;1.77;;;5.80;36.80;;;;;;4778749;29;20089;-76
2022/03/11 09:18:44;;;;;;;5.07;1.83;;;5.90;36.80;;;;;;4774211;29;20058;-77
2022/03/11 09:21:12;;;;;;;12.63;3.97;;;5.90;36.40;;;;;;4776607;29;20051;-76
2022/03/11 09:23:39;;;;;;;12.85;3.80;;;6.00;36.50;;;;;;4791272;29;20065;-77
2022/03/11 09:26:07;;;;;;;9.13;2.10;;;6.10;37.20;;;;;;4758091;29;20062;-76
2022/03/11 09:28:34;;;;;;;4.53;1.23;;;6.20;36.80;;;;;;4784942;29;20501;-76
2022/03/11 09:31:03;;;;;;;3.22;1.35;;;6.20;36.20;;;;;;4786350;29;20090;-76
2022/03/11 09:33:31;;;;;;;5.18;1.48;;;6.20;36.20;;;;;;4787457;29;20450;-75
2022/03/11 09:35:58;;;;;;;4.10;1.35;;;6.00;35.70;;;;;;4788112;29;20071;-75
2022/03/11 09:38:25;;;;;;;3.58;1.73;;;6.00;35.50;;;;;;4785496;29;20066;-76
2022/03/11 09:40:53;;;;;;;5.35;1.15;;;6.10;35.90;;;;;;4786123;29;20058;-74
2022/03/11 09:43:21;;;;;;;3.95;1.17;;;6.30;35.50;;;;;;4769947;29;21150;-75
2022/03/11 09:45:48;;;;;;;2.53;1.15;;;6.40;35.50;;;;;;4762925;29;20173;-75
2022/03/11 09:48:19;;;;;;;4.38;1.33;;;6.40;35.80;;;;;;4769942;29;20063;-75
2022/03/11 09:50:46;;;;;;;3.25;1.45;;;6.50;35.00;;;;;;4796873;29;20186;-74
2022/03/11 09:53:15;;;;;;;3.65;1.35;;;6.60;35.30;;;;;;4783861;29;20046;-74
2022/03/11 09:55:43;;;;;;;4.75;1.15;;;6.70;36.10;;;;;;4781987;29;20170;-74
2022/03/11 09:58:10;;;;;;;3.28;1.38;;;6.90;34.90;;;;;;4787288;29;20091;-76
2022/03/11 10:00:38;;;;;;;2.45;0.82;;;7.00;34.60;;;;;;4788974;29;20063;-74
2022/03/11 10:03:07;;;;;;;3.45;1.10;;;7.20;34.30;;;;;;4776415;29;20065;-75
2022/03/11 10:05:51;;;;;;;3.85;1.38;;;7.30;33.80;;;;;;4785938;29;20140;-76
2022/03/11 10:08:42;;;;;;;4.68;1.83;;;7.40;33.90;;;;;;4772809;29;20054;-75
2022/03/11 10:11:16;;;;;;;4.28;1.55;;;7.50;34.20;;;;;;4769346;29;20069;-76
2022/03/11 10:13:46;;;;;;;6.40;1.73;;;7.50;33.70;;;;;;4787581;29;20058;-75
2022/03/11 10:16:25;;;;;;;3.08;1.27;;;7.20;33.90;;;;;;4774656;29;20062;-75
2022/03/11 10:18:55;;;;;;;4.40;1.88;;;7.20;34.50;;;;;;4789500;29;20058;-76
2022/03/11 10:21:30;;;;;;;5.97;1.60;;;7.30;33.60;;;;;;4766517;29;20098;-75
2022/03/11 10:23:58;;;;;;;3.22;1.30;;;7.40;34.00;;;;;;4771938;29;20055;-75
2022/03/11 10:26:46;;;;;;;4.28;1.30;;;7.60;32.90;;;;;;4787269;29;20051;-75
2022/03/11 10:29:22;;;;;;;4.32;0.88;;;7.70;32.60;;;;;;4767827;29;20054;-74
2022/03/11 10:31:55;;;;;;;6.55;2.17;;;7.80;33.00;;;;;;4782249;29;20050;-74
2022/03/11 10:34:33;;;;;;;5.57;1.65;;;8.00;33.20;;;;;;4781260;29;20141;-73
2022/03/11 10:37:09;;;;;;;4.72;1.30;;;7.80;33.30;;;;;;4783828;29;20058;-76
2022/03/11 10:39:39;;;;;;;3.90;1.10;;;7.80;33.40;;;;;;4761298;29;20198;-75
2022/03/11 10:42:24;;;;;;;3.92;1.08;;;7.90;33.50;;;;;;4767244;29;20050;-74
2022/03/11 10:45:00;;;;;;;3.95;1.10;;;7.90;32.50;;;;;;4786801;29;20054;-76
2022/03/11 10:47:38;;;;;;;2.30;0.68;;;8.10;32.20;;;;;;4787319;29;20065;-76
2022/03/11 10:50:08;;;;;;;5.15;1.40;;;8.00;31.20;;;;;;4770886;29;20054;-77
2022/03/11 10:52:44;;;;;;;5.05;1.08;;;8.00;33.00;;;;;;4783384;29;20885;-74
2022/03/11 10:55:18;;;;;;;5.30;1.15;;;8.20;32.20;;;;;;4784149;29;20131;-77
2022/03/11 10:57:47;;;;;;;5.03;1.30;;;8.30;31.50;;;;;;4772962;29;20054;-76
2022/03/11 11:00:20;;;;;;;4.40;1.23;;;8.40;30.80;;;;;;4768091;29;20222;-74
2022/03/11 11:02:49;;;;;;;3.58;1.27;;;8.20;30.60;;;;;;4763938;29;20069;-74
2022/03/11 11:05:17;;;;;;;3.33;1.20;;;8.10;30.60;;;;;;4770202;29;20054;-76
2022/03/11 11:07:45;;;;;;;2.05;0.70;;;8.20;31.70;;;;;;4767084;29;20057;-75
2022/03/11 11:10:14;;;;;;;5.35;0.80;;;8.50;30.20;;;;;;4764343;29;20119;-75
2022/03/11 11:12:43;;;;;;;3.97;1.30;;;8.80;29.90;;;;;;4762965;29;20047;-76
2022/03/11 11:15:11;;;;;;;4.22;1.23;;;9.00;31.30;;;;;;4767908;29;20051;-76
2022/03/11 11:17:41;;;;;;;3.25;1.42;;;9.00;30.30;;;;;;4779677;29;20091;-75
2022/03/11 11:20:23;;;;;;;3.50;0.93;;;8.80;30.00;;;;;;4767927;29;20051;-76
2022/03/11 11:22:53;;;;;;;3.38;0.93;;;8.70;31.70;;;;;;4768553;29;20065;-76
2022/03/11 11:25:22;;;;;;;3.22;0.88;;;8.60;29.90;;;;;;4783745;29;20059;-78
2022/03/11 11:27:53;;;;;;;4.25;1.15;;;8.60;30.00;;;;;;4782953;29;20054;-75
2022/03/11 11:30:23;;;;;;;5.45;1.73;;;8.50;30.10;;;;;;4767505;29;20047;-76
2022/03/11 11:32:55;;;;;;;2.70;0.98;;;8.70;30.30;;;;;;4768452;29;20062;-76
2022/03/11 11:35:24;;;;;;;4.10;1.40;;;8.70;29.80;;;;;;4785216;29;20062;-75
2022/03/11 11:37:52;;;;;;;3.47;1.10;;;8.70;30.00;;;;;;4748621;29;20109;-75
2022/03/11 11:40:37;;;;;;;3.95;1.25;;;8.80;29.90;;;;;;4766599;29;20069;-75
2022/03/11 11:43:14;;;;;;;3.42;1.10;;;8.70;30.10;;;;;;4765887;29;20070;-73
2022/03/11 11:45:41;;;;;;;3.72;1.23;;;8.90;29.50;;;;;;4757710;29;20047;-76
2022/03/11 11:48:33;;;;;;;6.40;1.70;;;9.10;29.50;;;;;;4781662;29;20063;-75
2022/03/11 11:51:03;;;;;;;4.28;0.80;;;9.20;29.80;;;;;;4766386;29;20592;-75
2022/03/11 11:53:34;;;;;;;4.82;1.27;;;9.30;28.60;;;;;;4764053;29;20537;-77
2022/03/11 11:56:22;;;;;;;4.13;0.95;;;9.40;28.00;;;;;;4769936;29;20594;-78
2022/03/11 11:58:51;;;;;;;5.55;1.60;;;9.30;28.80;;;;;;4757928;29;20201;-77
2022/03/11 12:01:40;;;;;;;2.60;0.90;;;9.30;27.90;;;;;;4775089;29;20818;-77
2022/03/11 12:04:28;;;;;;;4.68;1.27;;;9.10;28.00;;;;;;4758319;29;20058;-78
2022/03/11 12:06:58;;;;;;;4.82;0.70;;;9.20;28.30;;;;;;4774794;29;20050;-77
2022/03/11 12:09:40;;;;;;;3.35;0.95;;;9.30;27.50;;;;;;4787017;29;20181;-76
2022/03/11 12:12:09;;;;;;;4.55;0.60;;;9.40;27.70;;;;;;4802853;29;20062;-76
2022/03/11 12:15:08;;;;;;;4.20;1.10;;;9.40;27.60;;;;;;4777732;29;20054;-76
2022/03/11 12:18:02;;;;;;;4.00;0.90;;;9.50;28.20;;;;;;4792836;29;20376;-76
2022/03/11 12:20:32;;;;;;;3.15;1.20;;;9.70;27.50;;;;;;4780361;29;20062;-76
2022/03/11 12:23:07;;;;;;;1.98;0.68;;;9.50;28.00;;;;;;4777038;29;20054;-78
2022/03/11 12:25:41;;;;;;;5.47;0.93;;;9.60;28.00;;;;;;4773388;29;20059;-77
2022/03/11 12:28:31;;;;;;;8.90;2.05;;;9.80;27.90;;;;;;4788700;29;22865;-78
2022/03/11 12:31:23;;;;;;;3.38;1.08;;;9.80;28.20;;;;;;4776824;29;20059;-77
2022/03/11 12:33:51;;;;;;;4.95;0.98;;;10.00;27.60;;;;;;4793367;29;20077;-77
2022/03/11 12:36:22;;;;;;;3.10;0.77;;;10.00;28.00;;;;;;4793814;29;22538;-77
2022/03/11 12:38:52;;;;;;;4.10;0.90;;;9.90;28.10;;;;;;4806570;29;20069;-78
2022/03/11 12:41:32;;;;;;;2.42;0.73;;;10.10;27.80;;;;;;4775046;29;20105;-77
2022/03/11 12:44:00;;;;;;;1.95;0.77;;;10.10;27.60;;;;;;4776961;29;22515;-77
2022/03/11 12:46:27;;;;;;;3.85;0.60;;;10.10;27.40;;;;;;4777553;29;20082;-78
2022/03/11 12:48:54;;;;;;;3.65;1.10;;;10.10;27.40;;;;;;4773170;29;20175;-76
2022/03/11 12:51:24;;;;;;;2.92;0.77;;;10.20;27.10;;;;;;4791134;29;20054;-75
2022/03/11 12:53:53;;;;;;;2.15;0.60;;;10.10;26.60;;;;;;4788423;29;20062;-75
2022/03/11 12:56:22;;;;;;;2.88;0.63;;;10.30;26.90;;;;;;4784259;29;20062;-76
2022/03/11 12:58:50;;;;;;;2.38;0.65;;;10.40;26.40;;;;;;4791296;29;20445;-76
2022/03/11 13:01:19;;;;;;;3.60;0.90;;;10.40;25.70;;;;;;4790929;29;20125;-76
2022/03/11 13:03:50;;;;;;;2.58;0.68;;;10.00;26.30;;;;;;4793298;29;20050;-76
2022/03/11 13:06:19;;;;;;;3.97;0.80;;;10.10;26.40;;;;;;4789902;29;20093;-75